createdAt,value
2019-03-16T00:01:00.956Z,8.40
2019-03-16T00:03:31.947Z,13.45
2019-03-16T00:06:00.407Z,17.90
2019-03-16T00:08:28.852Z,11.77
2019-03-16T00:11:01.195Z,17.20
2019-03-16T00:13:29.644Z,11.10
2019-03-16T00:15:59.604Z,11.00
2019-03-16T00:18:28.396Z,13.20
2019-03-16T00:20:59.913Z,14.60
2019-03-16T00:23:31.286Z,19.33
2019-03-16T00:25:59.730Z,12.80
2019-03-16T00:28:32.779Z,11.87
2019-03-16T00:31:01.227Z,12.07
2019-03-16T00:33:29.687Z,10.67
2019-03-16T00:35:58.199Z,12.80
2019-03-16T00:38:26.643Z,12.30
2019-03-16T00:40:55.112Z,12.93
2019-03-16T00:43:25.428Z,11.55
2019-03-16T00:45:53.878Z,9.80
2019-03-16T00:48:25.562Z,13.70
2019-03-16T00:50:54.019Z,15.60
2019-03-16T00:53:22.918Z,11.13
2019-03-16T00:55:52.967Z,13.63
2019-03-16T00:58:21.413Z,9.85
2019-03-16T01:00:49.867Z,14.87
2019-03-16T01:03:21.364Z,14.23
2019-03-16T01:05:49.812Z,19.60
2019-03-16T01:08:23.270Z,14.67
2019-03-16T01:10:51.807Z,19.27
2019-03-16T01:13:24.638Z,15.90
2019-03-16T01:15:53.091Z,13.77
2019-03-16T01:18:26.933Z,15.57
2019-03-16T01:20:56.054Z,12.00
2019-03-16T01:23:33.523Z,15.07
2019-03-16T01:26:05.943Z,13.13
2019-03-16T01:28:34.468Z,15.70
2019-03-16T01:31:04.718Z,14.60
2019-03-16T01:33:36.683Z,19.07
2019-03-16T01:36:08.330Z,18.80
2019-03-16T01:38:36.791Z,18.23
2019-03-16T01:41:08.575Z,19.60
2019-03-16T01:43:39.321Z,20.17
2019-03-16T01:46:07.771Z,19.80
2019-03-16T01:48:38.134Z,19.40
2019-03-16T01:51:06.596Z,22.17
2019-03-16T01:53:35.043Z,20.40
2019-03-16T01:56:05.835Z,14.43
2019-03-16T01:58:34.740Z,16.87
2019-03-16T02:01:03.245Z,17.90
2019-03-16T02:03:33.276Z,19.03
2019-03-16T02:06:01.722Z,16.25
2019-03-16T02:08:30.182Z,22.00
2019-03-16T02:11:00.331Z,21.73
2019-03-16T02:13:28.788Z,19.98
2019-03-16T02:16:10.025Z,17.93
2019-03-16T02:18:29.975Z,18.82
2019-03-16T02:20:58.704Z,23.70
2019-03-16T02:23:29.304Z,20.67
2019-03-16T02:26:03.835Z,16.83
2019-03-16T02:28:32.363Z,13.93
2019-03-16T02:31:01.285Z,23.37
2019-03-16T02:33:32.659Z,19.50
2019-03-16T02:36:02.167Z,18.20
2019-03-16T02:38:30.694Z,18.33
2019-03-16T02:40:59.153Z,23.63
2019-03-16T02:43:32.534Z,16.37
2019-03-16T02:46:00.991Z,19.63
2019-03-16T02:48:34.929Z,23.20
2019-03-16T02:51:03.380Z,14.40
2019-03-16T02:53:34.680Z,19.73
2019-03-16T02:56:03.127Z,19.57
2019-03-16T02:58:32.866Z,21.67
2019-03-16T03:01:03.142Z,17.40
2019-03-16T03:03:31.646Z,19.98
2019-03-16T03:06:00.100Z,20.50
2019-03-16T03:08:31.716Z,15.83
2019-03-16T03:11:00.180Z,20.43
2019-03-16T03:13:30.428Z,16.27
2019-03-16T03:15:58.960Z,15.95
2019-03-16T03:18:29.147Z,17.30
2019-03-16T03:20:59.255Z,29.37
2019-03-16T03:23:30.404Z,19.95
2019-03-16T03:26:00.328Z,16.97
2019-03-16T03:28:30.856Z,7.72
2019-03-16T03:33:57.525Z,18.62
2019-03-16T03:36:03.470Z,21.23
2019-03-16T03:41:01.949Z,20.90
2019-03-16T03:43:30.227Z,20.40
2019-03-16T03:45:58.759Z,19.60
2019-03-16T03:48:30.515Z,14.87
2019-03-16T03:50:59.710Z,13.37
2019-03-16T03:53:28.172Z,17.13
2019-03-16T03:55:56.699Z,17.10
2019-03-16T03:58:27.842Z,17.43
2019-03-16T04:00:58.559Z,21.83
2019-03-16T04:03:28.591Z,20.17
2019-03-16T04:05:57.198Z,16.27
2019-03-16T04:08:25.718Z,23.37
2019-03-16T04:10:56.087Z,20.83
2019-03-16T04:15:58.490Z,18.27
2019-03-16T04:18:27.043Z,19.27
2019-03-16T04:20:55.509Z,17.73
2019-03-16T04:23:26.601Z,17.30
2019-03-16T04:25:56.504Z,16.63
2019-03-16T04:28:27.250Z,18.80
2019-03-16T04:30:56.645Z,17.47
2019-03-16T04:33:25.166Z,16.33
2019-03-16T04:35:54.554Z,21.17
2019-03-16T04:38:45.855Z,17.47
2019-03-16T04:41:16.898Z,17.37
2019-03-16T04:43:45.355Z,13.47
2019-03-16T04:46:14.895Z,11.80
2019-03-16T04:48:46.755Z,16.07
2019-03-16T04:51:15.203Z,14.03
2019-03-16T04:53:43.662Z,22.33
2019-03-16T04:56:16.416Z,15.53
2019-03-16T04:58:44.875Z,22.10
2019-03-16T05:01:15.527Z,20.43
2019-03-16T05:03:45.272Z,15.60
2019-03-16T05:06:13.722Z,17.20
2019-03-16T05:08:47.121Z,19.07
2019-03-16T05:11:15.566Z,12.83
2019-03-16T05:13:44.023Z,20.47
2019-03-16T05:16:14.891Z,11.90
2019-03-16T05:18:43.362Z,23.17
2019-03-16T05:21:11.807Z,14.13
2019-03-16T05:23:40.319Z,18.77
2019-03-16T05:26:08.769Z,23.13
2019-03-16T05:28:40.235Z,14.63
2019-03-16T05:31:12.195Z,21.67
2019-03-16T05:33:40.659Z,18.30
2019-03-16T05:36:10.569Z,21.07
2019-03-16T05:38:39.286Z,11.15
2019-03-16T05:41:11.883Z,14.43
2019-03-16T05:43:40.339Z,24.00
2019-03-16T05:46:10.680Z,14.07
2019-03-16T05:48:39.130Z,18.00
2019-03-16T05:51:07.591Z,17.47
2019-03-16T05:53:37.777Z,21.57
2019-03-16T05:56:06.303Z,18.65
2019-03-16T05:58:34.763Z,14.43
2019-03-16T06:01:05.367Z,18.10
2019-03-16T06:03:33.904Z,15.73
2019-03-16T06:06:05.214Z,15.77
2019-03-16T06:08:35.942Z,17.20
2019-03-16T06:11:04.394Z,16.43
2019-03-16T06:13:35.575Z,25.20
2019-03-16T06:16:04.022Z,22.17
2019-03-16T06:18:32.484Z,16.70
2019-03-16T06:21:03.395Z,18.33
2019-03-16T06:23:31.922Z,19.20
2019-03-16T06:26:04.751Z,19.30
2019-03-16T06:28:41.251Z,20.73
2019-03-16T06:31:13.805Z,20.27
2019-03-16T06:33:46.690Z,24.03
2019-03-16T06:36:15.143Z,22.87
2019-03-16T06:38:44.275Z,28.00
2019-03-16T06:41:15.619Z,23.00
2019-03-16T06:43:51.830Z,14.20
2019-03-16T06:46:20.281Z,18.87
2019-03-16T06:48:48.803Z,15.43
2019-03-16T06:51:20.416Z,19.30
2019-03-16T06:53:48.885Z,14.73
2019-03-16T06:56:17.395Z,15.47
2019-03-16T06:58:51.594Z,15.10
2019-03-16T07:01:20.051Z,25.33
2019-03-16T07:03:48.593Z,14.03
2019-03-16T07:06:19.510Z,27.03
2019-03-16T07:08:47.959Z,16.27
2019-03-16T07:11:16.415Z,18.93
2019-03-16T07:13:47.432Z,18.43
2019-03-16T07:16:15.878Z,19.10
2019-03-16T07:18:44.333Z,20.00
2019-03-16T07:21:16.819Z,24.10
2019-03-16T07:23:45.267Z,21.97
2019-03-16T07:26:16.805Z,17.13
2019-03-16T07:28:47.647Z,20.87
2019-03-16T07:31:26.878Z,18.77
2019-03-16T07:33:58.126Z,18.33
2019-03-16T07:36:26.585Z,13.45
2019-03-16T07:39:00.222Z,14.37
2019-03-16T07:41:31.355Z,14.03
2019-03-16T07:44:04.755Z,23.30
2019-03-16T07:46:33.198Z,11.57
2019-03-16T07:49:01.931Z,16.02
2019-03-16T07:51:31.011Z,17.75
2019-03-16T07:53:59.468Z,16.67
2019-03-16T07:56:29.635Z,22.20
2019-03-16T07:58:58.094Z,18.77
2019-03-16T08:01:26.543Z,16.15
2019-03-16T08:03:59.707Z,20.75
2019-03-16T08:06:33.471Z,18.98
2019-03-16T08:09:01.546Z,20.40
2019-03-16T08:11:30.067Z,20.95
2019-03-16T08:14:01.823Z,16.30
2019-03-16T08:16:30.287Z,17.40
2019-03-16T08:19:00.335Z,12.33
2019-03-16T08:21:31.083Z,17.73
2019-03-16T08:23:59.530Z,24.55
2019-03-16T08:26:31.518Z,17.95
2019-03-16T08:29:01.382Z,27.00
2019-03-16T08:31:31.052Z,19.17
2019-03-16T08:34:04.547Z,18.52
2019-03-16T08:36:33.343Z,16.55
2019-03-16T08:39:01.796Z,19.87
2019-03-16T08:41:30.242Z,16.60
2019-03-16T08:44:02.595Z,22.35
2019-03-16T08:46:34.851Z,17.65
2019-03-16T08:49:03.386Z,17.82
2019-03-16T08:51:34.802Z,21.07
2019-03-16T08:54:03.259Z,21.45
2019-03-16T08:56:31.715Z,16.27
2019-03-16T08:59:05.475Z,12.13
2019-03-16T09:01:36.924Z,18.77
2019-03-16T09:04:05.379Z,14.20
2019-03-16T09:06:33.832Z,16.00
2019-03-16T09:09:04.943Z,22.85
2019-03-16T09:11:33.467Z,15.78
2019-03-16T09:14:04.671Z,15.83
2019-03-16T09:16:35.712Z,18.12
2019-03-16T09:19:04.171Z,23.83
2019-03-16T09:21:37.100Z,17.42
2019-03-16T09:24:05.605Z,16.12
2019-03-16T09:26:36.918Z,15.63
2019-03-16T09:29:14.808Z,22.58
2019-03-16T09:31:36.138Z,20.30
2019-03-16T09:34:06.983Z,13.00
2019-03-16T09:36:35.453Z,12.10
2019-03-16T09:39:06.160Z,18.32
2019-03-16T09:41:36.055Z,18.52
2019-03-16T09:44:07.835Z,19.73
2019-03-16T09:46:41.087Z,13.08
2019-03-16T09:49:09.610Z,15.48
2019-03-16T09:51:38.068Z,16.10
2019-03-16T09:54:09.723Z,18.75
2019-03-16T09:56:38.186Z,17.90
2019-03-16T09:59:07.907Z,15.63
2019-03-16T10:01:39.363Z,14.60
2019-03-16T10:04:07.819Z,13.78
2019-03-16T10:06:38.284Z,34.38
2019-03-16T10:11:37.982Z,22.65
2019-03-16T10:14:09.963Z,9.95
2019-03-16T10:16:38.415Z,15.08
2019-03-16T10:19:06.941Z,13.28
2019-03-16T10:21:40.853Z,13.43
2019-03-16T10:24:09.301Z,12.70
2019-03-16T10:26:40.067Z,12.30
2019-03-16T10:29:15.407Z,18.87
2019-03-16T10:31:43.871Z,14.60
2019-03-16T10:34:15.455Z,27.75
2019-03-16T10:36:43.979Z,20.17
2019-03-16T10:39:12.422Z,16.52
2019-03-16T10:41:43.011Z,14.68
2019-03-16T10:44:13.786Z,12.82
2019-03-16T10:46:42.244Z,15.43
2019-03-16T10:49:13.127Z,17.48
2019-03-16T10:51:41.650Z,14.85
2019-03-16T10:54:12.550Z,16.50
2019-03-16T10:56:43.483Z,16.73
2019-03-16T10:59:15.251Z,18.17
2019-03-16T11:01:43.779Z,10.78
2019-03-16T11:04:12.231Z,12.07
2019-03-16T11:06:41.618Z,15.65
2019-03-16T11:09:10.145Z,12.05
2019-03-16T11:11:39.626Z,12.78
2019-03-16T11:14:08.155Z,20.77
2019-03-16T11:16:36.676Z,13.58
2019-03-16T11:19:07.236Z,11.90
2019-03-16T11:24:08.194Z,16.80
2019-03-16T11:26:36.649Z,12.95
2019-03-16T11:29:09.335Z,14.87
2019-03-16T11:31:40.856Z,16.27
2019-03-16T11:34:09.311Z,13.32
2019-03-16T11:36:38.099Z,9.98
2019-03-16T11:39:11.995Z,20.35
2019-03-16T11:41:40.442Z,12.45
2019-03-16T11:44:09.884Z,12.35
2019-03-16T11:46:41.956Z,10.28
2019-03-16T11:49:10.431Z,9.10
2019-03-16T11:51:38.879Z,7.60
2019-03-16T11:54:10.063Z,7.75
2019-03-16T11:56:38.512Z,7.92
2019-03-16T11:59:21.776Z,5.80
2019-03-16T12:01:47.664Z,6.67
2019-03-16T12:04:16.106Z,7.47
2019-03-16T12:06:46.611Z,7.62
2019-03-16T12:11:45.806Z,6.92
2019-03-16T12:14:16.580Z,4.53
2019-03-16T12:16:45.027Z,4.85
2019-03-16T12:19:16.715Z,5.92
2019-03-16T12:21:45.158Z,8.90
2019-03-16T12:24:13.618Z,5.55
2019-03-16T12:26:46.567Z,9.03
2019-03-16T12:29:15.015Z,4.35
2019-03-16T12:31:45.204Z,10.15
2019-03-16T12:34:16.537Z,4.47
2019-03-16T12:36:45.058Z,6.22
2019-03-16T12:39:17.094Z,5.50
2019-03-16T12:41:48.840Z,5.25
2019-03-16T12:44:17.283Z,3.22
2019-03-16T12:46:48.387Z,7.20
2019-03-16T12:49:22.281Z,3.95
2019-03-16T12:51:54.242Z,6.10
2019-03-16T12:54:22.687Z,8.03
2019-03-16T12:56:51.153Z,7.50
2019-03-16T12:59:22.050Z,3.27
2019-03-16T13:01:50.519Z,3.65
2019-03-16T13:04:20.270Z,4.30
2019-03-16T13:06:48.730Z,6.17
2019-03-16T13:09:22.407Z,8.38
2019-03-16T13:11:50.885Z,5.50
2019-03-16T13:14:19.615Z,6.50
2019-03-16T13:16:51.283Z,4.03
2019-03-16T13:19:19.734Z,5.25
2019-03-16T13:21:50.294Z,6.22
2019-03-16T13:24:18.753Z,5.60
2019-03-16T13:26:47.218Z,6.10
2019-03-16T13:29:19.036Z,4.92
2019-03-16T13:31:47.554Z,7.37
2019-03-16T13:34:26.408Z,4.53
2019-03-16T13:36:54.647Z,4.55
2019-03-16T13:39:23.271Z,3.42
2019-03-16T13:41:53.756Z,4.42
2019-03-16T13:46:51.342Z,4.15
2019-03-16T13:49:21.994Z,6.55
2019-03-16T13:51:50.441Z,5.95
2019-03-16T13:54:19.177Z,5.97
2019-03-16T13:56:50.589Z,4.83
2019-03-16T13:59:19.154Z,3.72
2019-03-16T14:01:48.086Z,2.95
2019-03-16T14:04:18.731Z,6.75
2019-03-16T14:06:47.905Z,5.25
2019-03-16T14:09:16.445Z,2.12
2019-03-16T14:11:48.276Z,3.20
2019-03-16T14:14:16.725Z,2.37
2019-03-16T14:16:45.280Z,9.20
2019-03-16T14:19:15.069Z,4.80
2019-03-16T14:21:43.901Z,4.33
2019-03-16T14:24:12.621Z,4.15
2019-03-16T14:26:43.069Z,2.90
2019-03-16T14:31:39.631Z,2.30
2019-03-16T14:34:09.387Z,2.20
2019-03-16T14:36:37.939Z,3.10
2019-03-16T14:39:11.414Z,2.17
2019-03-16T14:41:39.910Z,8.95
2019-03-16T14:44:10.626Z,2.20
2019-03-16T14:46:40.430Z,2.25
2019-03-16T14:49:10.770Z,3.20
2019-03-16T14:51:39.235Z,3.25
2019-03-16T14:54:07.804Z,3.50
2019-03-16T14:56:39.821Z,2.63
2019-03-16T14:59:08.364Z,4.50
2019-03-16T15:01:38.645Z,2.30
2019-03-16T15:04:07.091Z,3.02
2019-03-16T15:06:37.550Z,2.37
2019-03-16T15:11:36.337Z,2.62
2019-03-16T15:14:04.966Z,2.40
2019-03-16T15:16:36.359Z,2.83
2019-03-16T15:19:04.881Z,2.27
2019-03-16T15:21:36.643Z,4.05
2019-03-16T15:24:05.172Z,2.77
2019-03-16T15:26:33.632Z,2.50
2019-03-16T15:29:02.168Z,3.58
2019-03-16T15:31:30.683Z,4.05
2019-03-16T15:33:59.217Z,3.35
2019-03-16T15:36:27.733Z,4.37
2019-03-16T15:38:56.180Z,2.95
2019-03-16T15:41:24.625Z,2.92
2019-03-16T15:43:53.131Z,3.65
2019-03-16T15:46:21.578Z,2.92
2019-03-16T15:48:50.131Z,3.17
2019-03-16T15:51:18.669Z,2.45
2019-03-16T15:53:47.200Z,2.40
2019-03-16T15:56:15.646Z,1.47
2019-03-16T15:58:44.166Z,2.92
2019-03-16T16:01:12.697Z,1.62
2019-03-16T16:03:41.214Z,1.37
2019-03-16T16:06:09.706Z,2.10
2019-03-16T16:08:38.301Z,2.00
2019-03-16T16:11:06.918Z,2.20
2019-03-16T16:13:35.381Z,2.40
2019-03-16T16:16:03.987Z,2.80
2019-03-16T16:18:32.520Z,1.70
2019-03-16T16:21:01.054Z,1.60
2019-03-16T16:23:29.530Z,2.87
2019-03-16T16:25:58.027Z,2.45
2019-03-16T16:28:26.761Z,1.60
2019-03-16T16:30:55.221Z,2.15
2019-03-16T16:33:23.827Z,2.23
2019-03-16T16:35:52.357Z,3.03
2019-03-16T16:38:20.878Z,2.10
2019-03-16T16:40:49.434Z,2.12
2019-03-16T16:43:17.878Z,1.80
2019-03-16T16:45:46.915Z,2.17
2019-03-16T16:48:15.500Z,2.05
2019-03-16T16:50:45.735Z,3.03
2019-03-16T16:53:14.234Z,2.00
2019-03-16T16:55:42.742Z,3.00
2019-03-16T16:58:11.197Z,2.47
2019-03-16T17:00:39.657Z,2.37
2019-03-16T17:03:08.138Z,2.80
2019-03-16T17:05:36.582Z,2.73
2019-03-16T17:08:05.169Z,2.80
2019-03-16T17:10:33.629Z,3.30
2019-03-16T17:13:02.090Z,3.40
2019-03-16T17:15:30.676Z,3.60
2019-03-16T17:17:59.138Z,3.62
2019-03-16T17:20:27.672Z,4.27
2019-03-16T17:22:56.245Z,5.67
2019-03-16T17:25:24.720Z,4.00
2019-03-16T17:27:54.566Z,4.20
2019-03-16T17:30:28.276Z,4.25
2019-03-16T17:32:56.718Z,4.35
2019-03-16T17:35:25.254Z,4.50
2019-03-16T17:37:53.788Z,4.62
2019-03-16T17:40:22.308Z,4.95
2019-03-16T17:42:50.840Z,5.53
2019-03-16T17:45:19.373Z,4.80
2019-03-16T17:47:47.833Z,5.85
2019-03-16T17:50:17.268Z,6.42
2019-03-16T17:52:45.794Z,6.42
2019-03-16T17:55:15.352Z,7.50
2019-03-16T17:57:45.391Z,5.80
2019-03-16T18:00:17.913Z,8.15
2019-03-16T18:02:51.607Z,7.10
2019-03-16T18:05:16.642Z,7.08
2019-03-16T18:07:45.090Z,8.40
2019-03-16T18:10:14.616Z,9.63
2019-03-16T18:12:43.145Z,8.83
2019-03-16T18:15:14.081Z,8.70
2019-03-16T18:17:42.683Z,9.10
2019-03-16T18:20:13.157Z,11.05
2019-03-16T18:25:11.365Z,10.07
2019-03-16T18:27:40.073Z,10.48
2019-03-16T18:30:11.818Z,11.05
2019-03-16T18:32:40.367Z,10.08
2019-03-16T18:35:08.986Z,13.68
2019-03-16T18:37:37.488Z,13.65
2019-03-16T18:40:09.254Z,13.58
2019-03-16T18:42:37.789Z,15.00
2019-03-16T18:45:11.945Z,15.32
2019-03-16T18:47:40.487Z,15.48
2019-03-16T18:50:09.670Z,14.78
2019-03-16T18:52:38.118Z,15.45
2019-03-16T18:55:13.522Z,19.82
2019-03-16T18:57:42.125Z,16.73
2019-03-16T19:00:17.795Z,18.75
2019-03-16T19:02:46.635Z,18.35
2019-03-16T19:05:15.095Z,17.25
2019-03-16T19:07:43.547Z,17.52
2019-03-16T19:10:17.939Z,18.52
2019-03-16T19:12:46.646Z,20.43
2019-03-16T19:15:16.138Z,19.77
2019-03-16T19:17:57.520Z,16.77
2019-03-16T19:20:15.846Z,18.23
2019-03-16T19:22:44.367Z,22.45
2019-03-16T19:25:18.234Z,21.90
2019-03-16T19:27:46.834Z,20.05
2019-03-16T19:30:16.362Z,21.57
2019-03-16T19:32:45.006Z,22.30
2019-03-16T19:35:13.693Z,19.65
2019-03-16T19:37:42.169Z,21.10
2019-03-16T19:40:16.514Z,22.25
2019-03-16T19:42:46.705Z,23.80
2019-03-16T19:45:15.249Z,22.50
2019-03-16T19:47:43.873Z,25.15
2019-03-16T19:50:15.938Z,26.62
2019-03-16T19:52:44.393Z,24.37
2019-03-16T19:55:14.741Z,25.82
2019-03-16T19:57:43.190Z,23.02
2019-03-16T20:00:20.653Z,23.90
2019-03-16T20:02:51.558Z,23.62
2019-03-16T20:05:19.401Z,22.07
2019-03-16T20:07:47.916Z,24.23
2019-03-16T20:10:20.217Z,22.32
2019-03-16T20:12:48.696Z,22.95
2019-03-16T20:15:17.293Z,24.52
2019-03-16T20:17:45.750Z,22.73
2019-03-16T20:20:17.796Z,24.65
2019-03-16T20:22:46.382Z,25.92
2019-03-16T20:25:15.008Z,23.80
2019-03-16T20:27:43.544Z,23.50
2019-03-16T20:30:15.986Z,23.67
2019-03-16T20:32:44.457Z,23.40
2019-03-16T20:35:13.218Z,24.40
2019-03-16T20:37:41.731Z,23.75
2019-03-16T20:40:11.901Z,25.85
2019-03-16T20:42:40.354Z,26.48
2019-03-16T20:45:10.143Z,29.07
2019-03-16T20:47:38.725Z,25.00
2019-03-16T20:50:12.926Z,27.42
2019-03-16T20:52:41.485Z,24.25
2019-03-16T20:55:10.583Z,25.90
2019-03-16T20:57:39.065Z,27.45
2019-03-16T21:00:10.790Z,29.90
2019-03-16T21:02:39.248Z,25.32
2019-03-16T21:05:09.678Z,25.88
2019-03-16T21:10:08.494Z,26.05
2019-03-16T21:12:37.102Z,24.65
2019-03-16T21:15:13.248Z,21.12
2019-03-16T21:17:41.853Z,20.50
2019-03-16T21:20:14.939Z,19.98
2019-03-16T21:22:43.600Z,18.95
2019-03-16T21:25:15.949Z,23.47
2019-03-16T21:27:44.563Z,17.67
2019-03-16T21:30:17.249Z,14.55
2019-03-16T21:32:45.708Z,13.53
2019-03-16T21:35:14.397Z,11.63
2019-03-16T21:37:42.946Z,11.12
2019-03-16T21:40:16.258Z,10.38
2019-03-16T21:42:44.934Z,7.60
2019-03-16T21:45:14.199Z,8.18
2019-03-16T21:47:42.750Z,6.83
2019-03-16T21:50:12.530Z,10.05
2019-03-16T21:52:44.203Z,6.33
2019-03-16T21:55:12.659Z,6.67
2019-03-16T21:57:41.223Z,5.47
2019-03-16T22:00:14.810Z,5.97
2019-03-16T22:02:43.343Z,5.75
2019-03-16T22:05:11.983Z,6.80
2019-03-16T22:07:40.528Z,4.55
2019-03-16T22:10:16.747Z,4.35
2019-03-16T22:12:45.485Z,4.25
2019-03-16T22:15:17.257Z,7.10
2019-03-16T22:17:46.077Z,4.67
2019-03-16T22:20:17.131Z,5.35
2019-03-16T22:22:45.670Z,4.47
2019-03-16T22:25:14.374Z,5.37
2019-03-16T22:27:42.947Z,5.92
2019-03-16T22:30:18.703Z,4.97
2019-03-16T22:32:47.241Z,4.95
2019-03-16T22:35:15.707Z,5.40
2019-03-16T22:37:44.243Z,7.17
2019-03-16T22:40:14.518Z,5.40
2019-03-16T22:42:43.062Z,6.10
2019-03-16T22:45:12.728Z,5.33
2019-03-16T22:47:41.323Z,6.45
2019-03-16T22:50:14.853Z,6.03
2019-03-16T22:52:43.346Z,7.83
2019-03-16T22:55:11.809Z,5.70
2019-03-16T22:57:40.357Z,7.08
2019-03-16T23:00:18.863Z,5.45
2019-03-16T23:02:47.335Z,4.95
2019-03-16T23:05:15.851Z,6.72
2019-03-16T23:07:44.324Z,5.22
2019-03-16T23:10:13.217Z,5.67
2019-03-16T23:12:41.682Z,4.47
2019-03-16T23:15:11.364Z,5.00
2019-03-16T23:17:39.843Z,5.75
2019-03-16T23:20:09.228Z,6.55
2019-03-16T23:22:37.699Z,6.87
2019-03-16T23:25:10.328Z,4.37
2019-03-16T23:27:38.877Z,6.53
2019-03-16T23:30:09.238Z,5.45
2019-03-16T23:32:37.703Z,7.08
2019-03-16T23:35:07.814Z,7.20
2019-03-16T23:37:36.521Z,5.53
2019-03-16T23:40:10.444Z,6.35
2019-03-16T23:42:38.950Z,5.92
2019-03-16T23:45:10.088Z,7.30
2019-03-16T23:47:38.641Z,5.40
2019-03-16T23:50:14.795Z,7.05
2019-03-16T23:52:43.260Z,4.72
2019-03-16T23:55:11.718Z,6.08
2019-03-16T23:57:40.275Z,6.33
